createdAt,value
2019-02-19T00:04:18.480Z,62
2019-02-19T00:14:21.975Z,62
2019-02-19T00:24:25.510Z,62
2019-02-19T00:34:29.008Z,61
2019-02-19T00:44:32.512Z,61
2019-02-19T00:54:36.034Z,60
2019-02-19T01:04:39.553Z,60
2019-02-19T01:14:43.042Z,60
2019-02-19T01:24:46.558Z,60
2019-02-19T01:34:50.054Z,60
2019-02-19T01:44:53.545Z,59
2019-02-19T01:54:57.052Z,59
2019-02-19T02:05:00.588Z,59
2019-02-19T02:15:04.097Z,59
2019-02-19T02:25:07.609Z,59
2019-02-19T02:35:11.736Z,59
2019-02-19T02:45:15.272Z,59
2019-02-19T02:55:18.784Z,58
2019-02-19T03:05:22.328Z,57
2019-02-19T03:15:25.836Z,57
2019-02-19T03:25:29.375Z,57
2019-02-19T03:35:32.862Z,57
2019-02-19T03:45:36.397Z,57
2019-02-19T03:55:39.929Z,57
2019-02-19T04:05:43.444Z,57
2019-02-19T04:15:46.980Z,56
2019-02-19T04:25:50.507Z,56
2019-02-19T04:35:54.040Z,56
2019-02-19T04:45:57.531Z,55
2019-02-19T04:56:01.049Z,56
2019-02-19T05:06:04.558Z,55
2019-02-19T05:16:08.111Z,55
2019-02-19T05:26:11.614Z,56
2019-02-19T05:36:15.117Z,56
2019-02-19T05:46:18.649Z,56
2019-02-19T05:56:22.163Z,56
2019-02-19T06:06:25.706Z,56
2019-02-19T06:16:29.222Z,57
2019-02-19T06:26:32.758Z,54
2019-02-19T06:36:36.282Z,58
2019-02-19T06:46:39.796Z,58
2019-02-19T06:56:43.324Z,60
2019-02-19T07:06:46.830Z,61
2019-02-19T07:16:50.362Z,60
2019-02-19T07:26:53.872Z,62
2019-02-19T07:36:57.391Z,62
2019-02-19T07:47:00.920Z,63
2019-02-19T07:57:04.454Z,63
2019-02-19T08:07:07.975Z,65
2019-02-19T08:17:11.466Z,65
2019-02-19T08:27:14.991Z,66
2019-02-19T08:37:18.530Z,65
2019-02-19T08:47:22.002Z,66
2019-02-19T08:57:25.533Z,56
2019-02-19T09:07:29.060Z,51
2019-02-19T09:17:32.557Z,48
2019-02-19T09:27:36.081Z,49
2019-02-19T09:37:39.559Z,57
2019-02-19T09:47:43.026Z,61
2019-02-19T09:57:47.530Z,63
2019-02-19T10:07:51.085Z,91
2019-02-19T10:17:54.587Z,93
2019-02-19T10:27:58.094Z,82
2019-02-19T10:38:01.605Z,69
2019-02-19T10:48:05.095Z,46
2019-02-19T10:58:08.587Z,63
2019-02-19T11:08:12.108Z,63
2019-02-19T11:18:15.732Z,66
2019-02-19T11:28:19.245Z,68
2019-02-19T11:38:22.757Z,70
2019-02-19T11:48:26.250Z,72
2019-02-19T11:58:29.754Z,72
2019-02-19T12:08:39.644Z,74
2019-02-19T12:18:46.735Z,75
2019-02-19T12:28:50.264Z,75
2019-02-19T12:38:53.793Z,74
2019-02-19T12:48:57.295Z,72
2019-02-19T12:59:00.799Z,73
2019-02-19T13:09:04.301Z,74
2019-02-19T13:19:07.823Z,72
2019-02-19T13:29:11.372Z,74
2019-02-19T13:39:14.872Z,74
2019-02-19T13:49:18.400Z,74
2019-02-19T13:59:21.886Z,74
2019-02-19T14:09:25.423Z,43
2019-02-19T14:19:28.938Z,42
2019-02-19T14:29:32.431Z,51
2019-02-19T14:39:35.915Z,59
2019-02-19T14:49:47.970Z,62
2019-02-19T14:59:54.972Z,64
2019-02-19T15:09:58.469Z,62
2019-02-19T15:20:02.015Z,65
2019-02-19T15:30:05.538Z,65
2019-02-19T15:40:09.044Z,68
2019-02-19T15:50:12.542Z,66
2019-02-19T16:00:16.045Z,63
2019-02-19T16:10:19.557Z,68
2019-02-19T16:20:23.068Z,70
2019-02-19T16:30:26.566Z,67
2019-02-19T16:40:30.122Z,69
2019-02-19T16:50:33.657Z,68
2019-02-19T17:00:37.171Z,69
2019-02-19T17:10:40.765Z,70
2019-02-19T17:20:44.326Z,70
2019-02-19T17:30:47.839Z,68
2019-02-19T17:40:51.540Z,68
2019-02-19T17:50:55.045Z,66
2019-02-19T18:00:58.556Z,66
2019-02-19T18:11:02.098Z,65
2019-02-19T18:21:05.627Z,65
2019-02-19T18:31:09.154Z,66
2019-02-19T18:41:12.739Z,65
2019-02-19T18:51:16.270Z,64
2019-02-19T19:01:19.769Z,65
2019-02-19T19:11:23.287Z,65
2019-02-19T19:21:26.911Z,65
2019-02-19T19:31:34.265Z,65
2019-02-19T19:41:37.816Z,65
2019-02-19T19:51:41.338Z,64
2019-02-19T20:01:44.854Z,64
2019-02-19T20:11:48.370Z,63
2019-02-19T20:21:51.891Z,62
2019-02-19T20:31:55.399Z,62
2019-02-19T20:41:58.923Z,62
2019-02-19T20:52:02.424Z,60
2019-02-19T21:02:05.926Z,60
2019-02-19T21:12:09.435Z,60
2019-02-19T21:22:12.942Z,60
2019-02-19T21:32:16.471Z,58
2019-02-19T21:42:19.965Z,59
2019-02-19T21:52:23.465Z,55
2019-02-19T22:02:26.962Z,53
2019-02-19T22:12:30.483Z,51
2019-02-19T22:22:34.014Z,50
2019-02-19T22:32:37.541Z,49
2019-02-19T22:42:41.034Z,48
2019-02-19T22:52:44.549Z,47
2019-02-19T23:02:48.078Z,46
2019-02-19T23:12:51.660Z,46
2019-02-19T23:22:55.163Z,45
2019-02-19T23:32:58.678Z,45
2019-02-19T23:43:02.184Z,45
2019-02-19T23:53:05.667Z,45
